createdAt,value
2022-08-05T00:04:52.864Z,8
2022-08-05T00:34:43.234Z,9
2022-08-05T01:02:00.321Z,8
2022-08-05T01:30:53.668Z,8
2022-08-05T01:59:23.649Z,8
2022-08-05T02:28:08.819Z,7
2022-08-05T02:56:41.643Z,7
2022-08-05T03:25:32.143Z,10
2022-08-05T03:55:34.112Z,10
2022-08-05T04:22:31.279Z,12
2022-08-05T04:51:30.451Z,12
2022-08-05T05:20:23.853Z,7
2022-08-05T05:48:55.090Z,8
2022-08-05T06:17:54.519Z,8
2022-08-05T06:46:38.296Z,9
2022-08-05T07:15:13.512Z,7
2022-08-05T07:43:48.989Z,9
2022-08-05T08:12:37.672Z,9
2022-08-05T08:41:00.544Z,7
2022-08-05T09:09:54.466Z,7
2022-08-05T09:38:45.415Z,8
2022-08-05T10:07:50.433Z,7
2022-08-05T10:35:59.835Z,8
2022-08-05T11:04:39.751Z,7
2022-08-05T11:33:20.896Z,7
2022-08-05T12:02:03.915Z,7
2022-08-05T12:30:33.740Z,7
2022-08-05T12:59:13.957Z,7
2022-08-05T13:27:47.254Z,7
2022-08-05T13:56:27.701Z,7
2022-08-05T14:25:22.038Z,7
2022-08-05T14:54:06.810Z,7
2022-08-05T15:22:21.547Z,7
2022-08-05T15:50:51.448Z,7
2022-08-05T15:58:46.325Z,8
2022-08-05T16:27:32.429Z,7
2022-08-05T16:56:02.711Z,7
2022-08-05T17:24:57.405Z,6
2022-08-05T17:53:25.758Z,6
2022-08-05T18:22:08.166Z,8
2022-08-05T18:50:42.475Z,9
2022-08-05T19:18:57.920Z,13
2022-08-05T19:47:49.681Z,13
2022-08-05T20:16:19.489Z,14
2022-08-05T20:44:48.575Z,11
2022-08-05T21:13:20.061Z,10
2022-08-05T21:41:52.498Z,8
2022-08-05T22:10:25.647Z,7
2022-08-05T22:38:53.668Z,6
2022-08-05T23:07:44.915Z,5
2022-08-05T23:36:13.697Z,4
